sensor_id;sensor_type;location;lat;lon;timestamp;temperature;humidity
11617;DHT22;5864;52.998;9.068;2023-05-24T00:00:50;11.00;99.90
11617;DHT22;5864;52.998;9.068;2023-05-24T00:03:36;9.40;99.90
11617;DHT22;5864;52.998;9.068;2023-05-24T00:06:22;9.40;99.90
11617;DHT22;5864;52.998;9.068;2023-05-24T00:09:10;9.40;99.90
11617;DHT22;5864;52.998;9.068;2023-05-24T00:11:56;9.40;99.90
11617;DHT22;5864;52.998;9.068;2023-05-24T00:14:41;10.70;99.90
11617;DHT22;5864;52.998;9.068;2023-05-24T00:17:28;9.40;99.90
11617;DHT22;5864;52.998;9.068;2023-05-24T00:20:14;10.90;99.90
11617;DHT22;5864;52.998;9.068;2023-05-24T00:23:00;9.30;99.90
11617;DHT22;5864;52.998;9.068;2023-05-24T00:25:45;9.30;99.90
11617;DHT22;5864;52.998;9.068;2023-05-24T00:28:31;10.30;99.90
11617;DHT22;5864;52.998;9.068;2023-05-24T00:31:16;9.90;99.90
11617;DHT22;5864;52.998;9.068;2023-05-24T00:34:03;9.30;99.90
11617;DHT22;5864;52.998;9.068;2023-05-24T00:36:49;9.50;99.90
11617;DHT22;5864;52.998;9.068;2023-05-24T00:39:35;9.40;99.90
11617;DHT22;5864;52.998;9.068;2023-05-24T00:42:21;9.40;99.90
11617;DHT22;5864;52.998;9.068;2023-05-24T00:45:08;9.40;99.90
11617;DHT22;5864;52.998;9.068;2023-05-24T00:47:54;9.50;99.90
11617;DHT22;5864;52.998;9.068;2023-05-24T00:50:41;9.50;99.90
11617;DHT22;5864;52.998;9.068;2023-05-24T00:53:27;9.50;99.90
11617;DHT22;5864;52.998;9.068;2023-05-24T00:56:13;9.50;99.90
11617;DHT22;5864;52.998;9.068;2023-05-24T00:58:59;9.60;99.90
11617;DHT22;5864;52.998;9.068;2023-05-24T01:01:45;9.60;99.90
11617;DHT22;5864;52.998;9.068;2023-05-24T01:04:31;9.70;99.90
11617;DHT22;5864;52.998;9.068;2023-05-24T01:07:23;10.60;99.90
11617;DHT22;5864;52.998;9.068;2023-05-24T01:10:17;9.50;99.90
11617;DHT22;5864;52.998;9.068;2023-05-24T01:13:08;9.50;99.90
11617;DHT22;5864;52.998;9.068;2023-05-24T01:15:59;9.40;99.90
11617;DHT22;5864;52.998;9.068;2023-05-24T01:18:49;9.40;99.90
11617;DHT22;5864;52.998;9.068;2023-05-24T01:21:43;9.40;99.90
11617;DHT22;5864;52.998;9.068;2023-05-24T01:24:40;9.40;99.90
11617;DHT22;5864;52.998;9.068;2023-05-24T01:27:31;9.50;99.90
11617;DHT22;5864;52.998;9.068;2023-05-24T01:30:17;9.40;99.90
11617;DHT22;5864;52.998;9.068;2023-05-24T01:33:03;9.40;99.90
11617;DHT22;5864;52.998;9.068;2023-05-24T01:35:48;9.40;99.90
11617;DHT22;5864;52.998;9.068;2023-05-24T01:38:34;9.40;99.90
11617;DHT22;5864;52.998;9.068;2023-05-24T01:41:38;9.40;99.90
11617;DHT22;5864;52.998;9.068;2023-05-24T01:44:30;10.60;99.90
11617;DHT22;5864;52.998;9.068;2023-05-24T01:47:27;9.50;99.90
11617;DHT22;5864;52.998;9.068;2023-05-24T01:50:17;9.40;99.90
11617;DHT22;5864;52.998;9.068;2023-05-24T01:53:07;9.40;99.90
11617;DHT22;5864;52.998;9.068;2023-05-24T01:55:55;9.50;99.90
11617;DHT22;5864;52.998;9.068;2023-05-24T01:58:43;10.90;99.90
11617;DHT22;5864;52.998;9.068;2023-05-24T02:01:30;9.70;99.90
11617;DHT22;5864;52.998;9.068;2023-05-24T02:04:16;9.40;99.90
11617;DHT22;5864;52.998;9.068;2023-05-24T02:07:02;9.50;99.90
11617;DHT22;5864;52.998;9.068;2023-05-24T02:09:47;9.50;99.90
11617;DHT22;5864;52.998;9.068;2023-05-24T02:12:33;9.50;99.90
11617;DHT22;5864;52.998;9.068;2023-05-24T02:15:19;9.50;99.90
11617;DHT22;5864;52.998;9.068;2023-05-24T02:18:06;9.50;99.90
11617;DHT22;5864;52.998;9.068;2023-05-24T02:20:52;9.50;99.90
11617;DHT22;5864;52.998;9.068;2023-05-24T02:23:38;9.50;99.90
11617;DHT22;5864;52.998;9.068;2023-05-24T02:26:23;9.50;99.90
11617;DHT22;5864;52.998;9.068;2023-05-24T02:29:09;9.50;99.90
11617;DHT22;5864;52.998;9.068;2023-05-24T02:31:55;9.60;99.90
11617;DHT22;5864;52.998;9.068;2023-05-24T02:34:42;9.60;99.90
11617;DHT22;5864;52.998;9.068;2023-05-24T02:37:27;9.60;99.90
11617;DHT22;5864;52.998;9.068;2023-05-24T02:40:13;10.70;99.90
11617;DHT22;5864;52.998;9.068;2023-05-24T02:42:59;9.50;99.90
11617;DHT22;5864;52.998;9.068;2023-05-24T02:45:45;9.80;99.90
11617;DHT22;5864;52.998;9.068;2023-05-24T02:48:30;9.50;99.90
11617;DHT22;5864;52.998;9.068;2023-05-24T02:51:18;9.40;99.90
11617;DHT22;5864;52.998;9.068;2023-05-24T02:54:03;9.80;99.90
11617;DHT22;5864;52.998;9.068;2023-05-24T02:56:49;9.50;99.90
11617;DHT22;5864;52.998;9.068;2023-05-24T02:59:35;9.50;99.90
11617;DHT22;5864;52.998;9.068;2023-05-24T03:02:20;9.60;99.90
11617;DHT22;5864;52.998;9.068;2023-05-24T03:05:07;9.70;99.90
11617;DHT22;5864;52.998;9.068;2023-05-24T03:07:54;9.70;99.90
11617;DHT22;5864;52.998;9.068;2023-05-24T03:10:39;10.40;99.90
11617;DHT22;5864;52.998;9.068;2023-05-24T03:13:25;9.70;99.90
11617;DHT22;5864;52.998;9.068;2023-05-24T03:16:10;9.70;99.90
11617;DHT22;5864;52.998;9.068;2023-05-24T03:18:56;9.70;99.90
11617;DHT22;5864;52.998;9.068;2023-05-24T03:21:43;9.70;99.90
11617;DHT22;5864;52.998;9.068;2023-05-24T03:24:29;9.70;99.90
11617;DHT22;5864;52.998;9.068;2023-05-24T03:27:16;9.70;99.90
11617;DHT22;5864;52.998;9.068;2023-05-24T03:30:02;9.60;99.90
11617;DHT22;5864;52.998;9.068;2023-05-24T03:32:50;9.60;99.90
11617;DHT22;5864;52.998;9.068;2023-05-24T03:35:36;9.70;99.90
11617;DHT22;5864;52.998;9.068;2023-05-24T03:38:22;9.70;99.90
11617;DHT22;5864;52.998;9.068;2023-05-24T03:41:09;9.70;99.90
11617;DHT22;5864;52.998;9.068;2023-05-24T03:43:54;9.70;99.90
11617;DHT22;5864;52.998;9.068;2023-05-24T03:46:40;9.70;99.90
11617;DHT22;5864;52.998;9.068;2023-05-24T03:49:25;9.70;99.90
11617;DHT22;5864;52.998;9.068;2023-05-24T03:52:11;9.70;99.90
11617;DHT22;5864;52.998;9.068;2023-05-24T03:54:57;9.60;99.90
11617;DHT22;5864;52.998;9.068;2023-05-24T03:57:44;9.80;99.90
11617;DHT22;5864;52.998;9.068;2023-05-24T04:00:30;9.70;99.90
11617;DHT22;5864;52.998;9.068;2023-05-24T04:03:15;9.70;99.90
11617;DHT22;5864;52.998;9.068;2023-05-24T04:06:04;9.70;99.90
11617;DHT22;5864;52.998;9.068;2023-05-24T04:08:49;9.70;99.90
11617;DHT22;5864;52.998;9.068;2023-05-24T04:11:36;9.60;99.90
11617;DHT22;5864;52.998;9.068;2023-05-24T04:14:23;9.50;99.90
11617;DHT22;5864;52.998;9.068;2023-05-24T04:17:08;9.60;99.90
11617;DHT22;5864;52.998;9.068;2023-05-24T04:19:55;9.70;99.90
11617;DHT22;5864;52.998;9.068;2023-05-24T04:22:40;9.70;99.90
11617;DHT22;5864;52.998;9.068;2023-05-24T04:25:27;9.70;99.90
11617;DHT22;5864;52.998;9.068;2023-05-24T04:28:13;9.70;99.90
11617;DHT22;5864;52.998;9.068;2023-05-24T04:31:00;9.80;99.90
11617;DHT22;5864;52.998;9.068;2023-05-24T04:33:46;9.90;99.90
11617;DHT22;5864;52.998;9.068;2023-05-24T04:36:33;11.00;99.90
11617;DHT22;5864;52.998;9.068;2023-05-24T04:39:18;10.00;99.90
11617;DHT22;5864;52.998;9.068;2023-05-24T04:42:05;10.00;99.90
11617;DHT22;5864;52.998;9.068;2023-05-24T04:44:50;9.80;99.90
11617;DHT22;5864;52.998;9.068;2023-05-24T04:47:38;9.90;99.90
11617;DHT22;5864;52.998;9.068;2023-05-24T04:50:23;9.90;99.90
11617;DHT22;5864;52.998;9.068;2023-05-24T04:53:09;10.00;99.90
11617;DHT22;5864;52.998;9.068;2023-05-24T04:55:55;10.00;99.90
11617;DHT22;5864;52.998;9.068;2023-05-24T04:58:42;10.10;99.90
11617;DHT22;5864;52.998;9.068;2023-05-24T05:01:27;10.20;99.90
11617;DHT22;5864;52.998;9.068;2023-05-24T05:04:14;10.20;99.90
11617;DHT22;5864;52.998;9.068;2023-05-24T05:06:59;10.20;99.90
11617;DHT22;5864;52.998;9.068;2023-05-24T05:09:46;10.20;99.90
11617;DHT22;5864;52.998;9.068;2023-05-24T05:12:32;10.20;99.90
11617;DHT22;5864;52.998;9.068;2023-05-24T05:15:19;10.30;99.90
11617;DHT22;5864;52.998;9.068;2023-05-24T05:18:05;10.30;99.90
11617;DHT22;5864;52.998;9.068;2023-05-24T05:20:52;10.40;99.90
11617;DHT22;5864;52.998;9.068;2023-05-24T05:23:38;10.30;99.90
11617;DHT22;5864;52.998;9.068;2023-05-24T05:26:24;10.40;99.90
11617;DHT22;5864;52.998;9.068;2023-05-24T05:29:11;10.70;99.90
11617;DHT22;5864;52.998;9.068;2023-05-24T05:31:56;10.50;99.90
11617;DHT22;5864;52.998;9.068;2023-05-24T05:34:43;10.40;99.90
11617;DHT22;5864;52.998;9.068;2023-05-24T05:37:30;10.30;99.90
11617;DHT22;5864;52.998;9.068;2023-05-24T05:40:16;10.40;99.90
11617;DHT22;5864;52.998;9.068;2023-05-24T05:43:02;10.40;99.90
11617;DHT22;5864;52.998;9.068;2023-05-24T05:45:47;11.20;99.90
11617;DHT22;5864;52.998;9.068;2023-05-24T05:48:33;10.40;99.90
11617;DHT22;5864;52.998;9.068;2023-05-24T05:51:19;10.50;99.90
11617;DHT22;5864;52.998;9.068;2023-05-24T05:54:06;10.50;99.90
11617;DHT22;5864;52.998;9.068;2023-05-24T05:56:57;10.40;99.90
11617;DHT22;5864;52.998;9.068;2023-05-24T05:59:42;10.50;99.90
11617;DHT22;5864;52.998;9.068;2023-05-24T06:02:28;10.60;99.90
11617;DHT22;5864;52.998;9.068;2023-05-24T06:05:14;10.60;99.90
11617;DHT22;5864;52.998;9.068;2023-05-24T06:07:59;10.60;99.90
11617;DHT22;5864;52.998;9.068;2023-05-24T06:10:46;10.50;99.90
11617;DHT22;5864;52.998;9.068;2023-05-24T06:13:32;10.50;99.90
11617;DHT22;5864;52.998;9.068;2023-05-24T06:16:18;10.50;99.90
11617;DHT22;5864;52.998;9.068;2023-05-24T06:19:04;10.60;99.90
11617;DHT22;5864;52.998;9.068;2023-05-24T06:21:50;10.70;99.90
11617;DHT22;5864;52.998;9.068;2023-05-24T06:24:36;10.60;99.90
11617;DHT22;5864;52.998;9.068;2023-05-24T06:27:24;10.60;99.90
11617;DHT22;5864;52.998;9.068;2023-05-24T06:30:10;10.60;99.90
11617;DHT22;5864;52.998;9.068;2023-05-24T06:32:56;10.70;99.90
11617;DHT22;5864;52.998;9.068;2023-05-24T06:35:42;10.70;99.90
11617;DHT22;5864;52.998;9.068;2023-05-24T06:38:28;10.80;99.90
11617;DHT22;5864;52.998;9.068;2023-05-24T06:41:16;10.80;99.90
11617;DHT22;5864;52.998;9.068;2023-05-24T06:44:03;10.80;99.90
11617;DHT22;5864;52.998;9.068;2023-05-24T06:46:48;10.70;99.90
11617;DHT22;5864;52.998;9.068;2023-05-24T06:49:34;11.60;99.90
11617;DHT22;5864;52.998;9.068;2023-05-24T06:52:20;10.80;99.90
11617;DHT22;5864;52.998;9.068;2023-05-24T06:55:06;10.80;99.90
11617;DHT22;5864;52.998;9.068;2023-05-24T06:57:51;10.80;99.90
11617;DHT22;5864;52.998;9.068;2023-05-24T07:00:39;12.20;99.90
11617;DHT22;5864;52.998;9.068;2023-05-24T07:03:24;10.80;99.90
11617;DHT22;5864;52.998;9.068;2023-05-24T07:06:10;12.20;99.90
11617;DHT22;5864;52.998;9.068;2023-05-24T07:08:57;11.00;99.90
11617;DHT22;5864;52.998;9.068;2023-05-24T07:11:42;11.00;99.90
11617;DHT22;5864;52.998;9.068;2023-05-24T07:14:28;11.10;99.90
11617;DHT22;5864;52.998;9.068;2023-05-24T07:17:16;11.00;99.90
11617;DHT22;5864;52.998;9.068;2023-05-24T07:20:01;11.00;99.90
11617;DHT22;5864;52.998;9.068;2023-05-24T07:22:50;11.00;99.90
11617;DHT22;5864;52.998;9.068;2023-05-24T07:25:36;10.90;99.90
11617;DHT22;5864;52.998;9.068;2023-05-24T07:28:21;11.00;99.90
11617;DHT22;5864;52.998;9.068;2023-05-24T07:31:08;11.60;99.90
11617;DHT22;5864;52.998;9.068;2023-05-24T07:33:55;12.50;99.90
11617;DHT22;5864;52.998;9.068;2023-05-24T07:36:40;11.40;99.90
11617;DHT22;5864;52.998;9.068;2023-05-24T07:39:26;11.30;99.90
11617;DHT22;5864;52.998;9.068;2023-05-24T07:42:12;11.70;99.90
11617;DHT22;5864;52.998;9.068;2023-05-24T07:44:58;11.50;99.90
11617;DHT22;5864;52.998;9.068;2023-05-24T07:47:43;11.60;99.90
11617;DHT22;5864;52.998;9.068;2023-05-24T07:50:31;12.90;99.90
11617;DHT22;5864;52.998;9.068;2023-05-24T07:53:16;11.60;99.90
11617;DHT22;5864;52.998;9.068;2023-05-24T07:56:03;11.90;99.90
11617;DHT22;5864;52.998;9.068;2023-05-24T07:58:48;11.90;99.90
11617;DHT22;5864;52.998;9.068;2023-05-24T08:01:34;11.70;99.90
11617;DHT22;5864;52.998;9.068;2023-05-24T08:04:20;11.80;99.90
11617;DHT22;5864;52.998;9.068;2023-05-24T08:07:06;11.90;99.90
11617;DHT22;5864;52.998;9.068;2023-05-24T08:09:52;11.90;99.90
11617;DHT22;5864;52.998;9.068;2023-05-24T08:12:38;11.90;99.90
11617;DHT22;5864;52.998;9.068;2023-05-24T08:15:24;11.90;99.90
11617;DHT22;5864;52.998;9.068;2023-05-24T08:18:09;11.90;99.90
11617;DHT22;5864;52.998;9.068;2023-05-24T08:20:55;12.00;99.90
11617;DHT22;5864;52.998;9.068;2023-05-24T08:23:43;12.30;99.90
11617;DHT22;5864;52.998;9.068;2023-05-24T08:26:29;12.50;99.90
11617;DHT22;5864;52.998;9.068;2023-05-24T08:29:14;12.60;99.90
11617;DHT22;5864;52.998;9.068;2023-05-24T08:32:00;12.70;99.90
11617;DHT22;5864;52.998;9.068;2023-05-24T08:34:46;12.90;99.90
11617;DHT22;5864;52.998;9.068;2023-05-24T08:37:32;12.90;99.90
11617;DHT22;5864;52.998;9.068;2023-05-24T08:40:20;12.70;99.90
11617;DHT22;5864;52.998;9.068;2023-05-24T08:43:07;12.50;99.90
11617;DHT22;5864;52.998;9.068;2023-05-24T08:45:57;12.50;99.90
11617;DHT22;5864;52.998;9.068;2023-05-24T08:48:44;12.40;99.90
11617;DHT22;5864;52.998;9.068;2023-05-24T08:51:31;12.60;99.90
11617;DHT22;5864;52.998;9.068;2023-05-24T08:54:17;12.20;99.90
11617;DHT22;5864;52.998;9.068;2023-05-24T08:57:06;12.20;99.90
11617;DHT22;5864;52.998;9.068;2023-05-24T08:59:52;12.10;99.90
11617;DHT22;5864;52.998;9.068;2023-05-24T09:02:40;12.20;99.90
11617;DHT22;5864;52.998;9.068;2023-05-24T09:05:26;12.30;99.90
11617;DHT22;5864;52.998;9.068;2023-05-24T09:08:13;12.40;99.90
11617;DHT22;5864;52.998;9.068;2023-05-24T09:11:02;12.50;99.90
11617;DHT22;5864;52.998;9.068;2023-05-24T09:13:50;12.50;99.90
11617;DHT22;5864;52.998;9.068;2023-05-24T09:16:38;12.40;99.90
11617;DHT22;5864;52.998;9.068;2023-05-24T09:19:24;12.40;99.90
11617;DHT22;5864;52.998;9.068;2023-05-24T09:22:12;12.50;99.90
11617;DHT22;5864;52.998;9.068;2023-05-24T09:24:59;12.50;99.90
11617;DHT22;5864;52.998;9.068;2023-05-24T09:27:49;12.50;99.90
11617;DHT22;5864;52.998;9.068;2023-05-24T09:30:36;12.60;99.90
11617;DHT22;5864;52.998;9.068;2023-05-24T09:33:22;12.50;99.90
11617;DHT22;5864;52.998;9.068;2023-05-24T09:36:08;12.60;99.90
11617;DHT22;5864;52.998;9.068;2023-05-24T09:39:05;12.60;99.90
11617;DHT22;5864;52.998;9.068;2023-05-24T09:41:52;12.60;99.90
11617;DHT22;5864;52.998;9.068;2023-05-24T09:44:40;12.90;99.90
11617;DHT22;5864;52.998;9.068;2023-05-24T09:47:31;13.30;99.90
11617;DHT22;5864;52.998;9.068;2023-05-24T09:50:17;13.50;99.90
11617;DHT22;5864;52.998;9.068;2023-05-24T09:53:03;13.80;99.90
11617;DHT22;5864;52.998;9.068;2023-05-24T09:55:49;13.70;99.90
11617;DHT22;5864;52.998;9.068;2023-05-24T09:58:35;13.50;99.90
11617;DHT22;5864;52.998;9.068;2023-05-24T10:01:22;13.50;99.90
11617;DHT22;5864;52.998;9.068;2023-05-24T10:04:11;13.50;99.90
11617;DHT22;5864;52.998;9.068;2023-05-24T10:06:57;13.80;99.90
11617;DHT22;5864;52.998;9.068;2023-05-24T10:09:45;13.90;99.90
11617;DHT22;5864;52.998;9.068;2023-05-24T10:12:32;14.00;99.90
11617;DHT22;5864;52.998;9.068;2023-05-24T10:15:18;14.10;99.90
11617;DHT22;5864;52.998;9.068;2023-05-24T10:18:05;14.40;99.90
11617;DHT22;5864;52.998;9.068;2023-05-24T10:20:53;14.50;99.90
11617;DHT22;5864;52.998;9.068;2023-05-24T10:23:43;14.50;99.90
11617;DHT22;5864;52.998;9.068;2023-05-24T10:26:30;14.40;99.90
11617;DHT22;5864;52.998;9.068;2023-05-24T10:29:23;14.50;99.90
11617;DHT22;5864;52.998;9.068;2023-05-24T10:32:12;14.20;99.90
11617;DHT22;5864;52.998;9.068;2023-05-24T10:34:59;14.30;99.90
11617;DHT22;5864;52.998;9.068;2023-05-24T10:37:46;14.50;99.90
11617;DHT22;5864;52.998;9.068;2023-05-24T10:40:33;14.60;99.90
11617;DHT22;5864;52.998;9.068;2023-05-24T10:43:18;14.70;99.90
11617;DHT22;5864;52.998;9.068;2023-05-24T10:48:58;15.30;99.90
11617;DHT22;5864;52.998;9.068;2023-05-24T10:51:44;15.70;99.90
11617;DHT22;5864;52.998;9.068;2023-05-24T10:54:31;16.10;99.40
11617;DHT22;5864;52.998;9.068;2023-05-24T10:57:22;15.90;99.90
11617;DHT22;5864;52.998;9.068;2023-05-24T11:00:28;15.90;99.90
11617;DHT22;5864;52.998;9.068;2023-05-24T11:03:13;15.90;98.70
11617;DHT22;5864;52.998;9.068;2023-05-24T11:06:06;15.90;91.20
11617;DHT22;5864;52.998;9.068;2023-05-24T11:08:53;16.10;91.40
11617;DHT22;5864;52.998;9.068;2023-05-24T11:11:46;16.10;94.20
11617;DHT22;5864;52.998;9.068;2023-05-24T11:14:34;15.90;92.70
11617;DHT22;5864;52.998;9.068;2023-05-24T11:17:21;15.80;94.60
11617;DHT22;5864;52.998;9.068;2023-05-24T11:20:07;15.60;82.70
11617;DHT22;5864;52.998;9.068;2023-05-24T11:22:53;15.90;97.90
11617;DHT22;5864;52.998;9.068;2023-05-24T11:25:38;16.00;93.50
11617;DHT22;5864;52.998;9.068;2023-05-24T11:28:26;16.00;99.90
11617;DHT22;5864;52.998;9.068;2023-05-24T11:31:13;16.10;93.70
11617;DHT22;5864;52.998;9.068;2023-05-24T11:33:59;16.10;85.00
11617;DHT22;5864;52.998;9.068;2023-05-24T11:36:45;15.70;91.10
11617;DHT22;5864;52.998;9.068;2023-05-24T11:39:32;15.40;93.10
11617;DHT22;5864;52.998;9.068;2023-05-24T11:42:19;15.20;95.30
11617;DHT22;5864;52.998;9.068;2023-05-24T11:45:08;14.90;99.30
11617;DHT22;5864;52.998;9.068;2023-05-24T11:47:55;14.60;99.90
11617;DHT22;5864;52.998;9.068;2023-05-24T11:50:41;14.60;99.90
11617;DHT22;5864;52.998;9.068;2023-05-24T11:53:27;14.80;99.90
11617;DHT22;5864;52.998;9.068;2023-05-24T11:56:12;14.60;99.90
11617;DHT22;5864;52.998;9.068;2023-05-24T11:59:10;14.60;99.90
11617;DHT22;5864;52.998;9.068;2023-05-24T12:02:02;14.40;99.90
11617;DHT22;5864;52.998;9.068;2023-05-24T12:04:48;14.40;99.90
11617;DHT22;5864;52.998;9.068;2023-05-24T12:07:34;14.30;99.90
11617;DHT22;5864;52.998;9.068;2023-05-24T12:10:20;14.20;99.90
11617;DHT22;5864;52.998;9.068;2023-05-24T12:13:19;14.20;99.90
11617;DHT22;5864;52.998;9.068;2023-05-24T12:16:06;14.20;99.90
11617;DHT22;5864;52.998;9.068;2023-05-24T12:18:53;14.20;99.90
11617;DHT22;5864;52.998;9.068;2023-05-24T12:21:40;14.10;99.90
11617;DHT22;5864;52.998;9.068;2023-05-24T12:24:26;14.20;99.90
11617;DHT22;5864;52.998;9.068;2023-05-24T12:27:12;14.40;99.90
11617;DHT22;5864;52.998;9.068;2023-05-24T12:30:05;14.40;99.90
11617;DHT22;5864;52.998;9.068;2023-05-24T12:32:51;14.20;99.90
11617;DHT22;5864;52.998;9.068;2023-05-24T12:35:40;14.10;99.90
11617;DHT22;5864;52.998;9.068;2023-05-24T12:38:27;14.30;99.90
11617;DHT22;5864;52.998;9.068;2023-05-24T12:41:12;13.90;99.90
11617;DHT22;5864;52.998;9.068;2023-05-24T12:43:58;14.30;99.90
11617;DHT22;5864;52.998;9.068;2023-05-24T12:46:44;14.30;99.90
11617;DHT22;5864;52.998;9.068;2023-05-24T12:49:30;14.30;99.90
11617;DHT22;5864;52.998;9.068;2023-05-24T12:52:17;14.60;99.90
11617;DHT22;5864;52.998;9.068;2023-05-24T12:55:04;14.30;99.90
11617;DHT22;5864;52.998;9.068;2023-05-24T12:57:50;14.30;99.90
11617;DHT22;5864;52.998;9.068;2023-05-24T13:00:38;14.20;99.90
11617;DHT22;5864;52.998;9.068;2023-05-24T13:03:24;14.10;99.90
11617;DHT22;5864;52.998;9.068;2023-05-24T13:06:10;14.20;99.90
11617;DHT22;5864;52.998;9.068;2023-05-24T13:08:57;14.30;99.90
11617;DHT22;5864;52.998;9.068;2023-05-24T13:11:43;14.40;99.90
11617;DHT22;5864;52.998;9.068;2023-05-24T13:14:29;14.60;99.90
11617;DHT22;5864;52.998;9.068;2023-05-24T13:17:15;14.30;99.90
11617;DHT22;5864;52.998;9.068;2023-05-24T13:20:03;14.40;99.90
11617;DHT22;5864;52.998;9.068;2023-05-24T13:22:50;14.50;99.90
11617;DHT22;5864;52.998;9.068;2023-05-24T13:25:37;14.60;99.90
11617;DHT22;5864;52.998;9.068;2023-05-24T13:28:22;14.80;99.90
11617;DHT22;5864;52.998;9.068;2023-05-24T13:31:08;14.80;99.90
11617;DHT22;5864;52.998;9.068;2023-05-24T13:33:54;15.00;99.90
11617;DHT22;5864;52.998;9.068;2023-05-24T13:36:40;15.20;96.30
11617;DHT22;5864;52.998;9.068;2023-05-24T13:39:27;15.20;96.80
11617;DHT22;5864;52.998;9.068;2023-05-24T13:42:14;15.40;98.50
11617;DHT22;5864;52.998;9.068;2023-05-24T13:45:02;15.30;96.50
11617;DHT22;5864;52.998;9.068;2023-05-24T13:47:47;15.30;98.20
11617;DHT22;5864;52.998;9.068;2023-05-24T13:50:35;15.40;99.90
11617;DHT22;5864;52.998;9.068;2023-05-24T13:53:20;15.60;96.40
11617;DHT22;5864;52.998;9.068;2023-05-24T13:56:06;15.50;94.80
11617;DHT22;5864;52.998;9.068;2023-05-24T13:58:53;15.40;99.90
11617;DHT22;5864;52.998;9.068;2023-05-24T14:01:39;15.60;91.90
11617;DHT22;5864;52.998;9.068;2023-05-24T14:04:25;15.50;98.40
11617;DHT22;5864;52.998;9.068;2023-05-24T14:07:13;15.40;95.90
11617;DHT22;5864;52.998;9.068;2023-05-24T14:09:59;15.40;99.00
11617;DHT22;5864;52.998;9.068;2023-05-24T14:12:45;15.20;94.60
11617;DHT22;5864;52.998;9.068;2023-05-24T14:15:33;15.30;99.90
11617;DHT22;5864;52.998;9.068;2023-05-24T14:18:19;15.30;99.90
11617;DHT22;5864;52.998;9.068;2023-05-24T14:21:05;15.30;99.20
11617;DHT22;5864;52.998;9.068;2023-05-24T14:23:50;15.10;95.50
11617;DHT22;5864;52.998;9.068;2023-05-24T14:26:36;15.20;96.50
11617;DHT22;5864;52.998;9.068;2023-05-24T14:29:22;15.10;97.20
11617;DHT22;5864;52.998;9.068;2023-05-24T14:32:09;15.20;95.70
11617;DHT22;5864;52.998;9.068;2023-05-24T14:34:55;15.30;99.90
11617;DHT22;5864;52.998;9.068;2023-05-24T14:37:40;15.50;97.10
11617;DHT22;5864;52.998;9.068;2023-05-24T14:40:26;15.50;94.90
11617;DHT22;5864;52.998;9.068;2023-05-24T14:43:11;15.50;97.40
11617;DHT22;5864;52.998;9.068;2023-05-24T14:45:57;15.50;92.90
11617;DHT22;5864;52.998;9.068;2023-05-24T14:48:44;15.40;94.40
11617;DHT22;5864;52.998;9.068;2023-05-24T14:51:31;15.40;93.60
11617;DHT22;5864;52.998;9.068;2023-05-24T14:54:16;15.50;97.60
11617;DHT22;5864;52.998;9.068;2023-05-24T14:57:03;15.70;99.90
11617;DHT22;5864;52.998;9.068;2023-05-24T14:59:50;15.90;96.80
11617;DHT22;5864;52.998;9.068;2023-05-24T15:02:36;16.00;89.60
11617;DHT22;5864;52.998;9.068;2023-05-24T15:05:22;15.70;83.40
11617;DHT22;5864;52.998;9.068;2023-05-24T15:08:08;15.60;89.50
11617;DHT22;5864;52.998;9.068;2023-05-24T15:10:53;15.50;93.70
11617;DHT22;5864;52.998;9.068;2023-05-24T15:13:40;15.40;98.80
11617;DHT22;5864;52.998;9.068;2023-05-24T15:16:25;15.20;93.50
11617;DHT22;5864;52.998;9.068;2023-05-24T15:19:11;15.40;97.10
11617;DHT22;5864;52.998;9.068;2023-05-24T15:21:58;15.40;95.60
11617;DHT22;5864;52.998;9.068;2023-05-24T15:24:44;15.60;93.10
11617;DHT22;5864;52.998;9.068;2023-05-24T15:27:29;15.50;96.40
11617;DHT22;5864;52.998;9.068;2023-05-24T15:30:18;15.60;99.90
11617;DHT22;5864;52.998;9.068;2023-05-24T15:33:03;15.50;84.20
11617;DHT22;5864;52.998;9.068;2023-05-24T15:35:49;15.60;94.30
11617;DHT22;5864;52.998;9.068;2023-05-24T15:38:36;15.60;91.40
11617;DHT22;5864;52.998;9.068;2023-05-24T15:41:23;15.70;91.40
11617;DHT22;5864;52.998;9.068;2023-05-24T15:44:08;15.70;90.00
11617;DHT22;5864;52.998;9.068;2023-05-24T15:46:54;15.70;78.00
11617;DHT22;5864;52.998;9.068;2023-05-24T15:49:40;15.80;84.10
11617;DHT22;5864;52.998;9.068;2023-05-24T15:52:25;15.70;82.50
11617;DHT22;5864;52.998;9.068;2023-05-24T15:55:13;15.60;91.60
11617;DHT22;5864;52.998;9.068;2023-05-24T15:57:58;15.60;91.60
11617;DHT22;5864;52.998;9.068;2023-05-24T16:00:44;15.60;89.80
11617;DHT22;5864;52.998;9.068;2023-05-24T16:03:29;15.70;93.20
11617;DHT22;5864;52.998;9.068;2023-05-24T16:06:14;15.80;90.10
11617;DHT22;5864;52.998;9.068;2023-05-24T16:09:01;15.70;92.40
11617;DHT22;5864;52.998;9.068;2023-05-24T16:11:49;15.60;91.50
11617;DHT22;5864;52.998;9.068;2023-05-24T16:14:35;15.80;91.10
11617;DHT22;5864;52.998;9.068;2023-05-24T16:17:21;16.00;85.20
11617;DHT22;5864;52.998;9.068;2023-05-24T16:20:07;15.70;85.00
11617;DHT22;5864;52.998;9.068;2023-05-24T16:22:54;16.10;84.50
11617;DHT22;5864;52.998;9.068;2023-05-24T16:25:39;16.30;70.70
11617;DHT22;5864;52.998;9.068;2023-05-24T16:28:27;16.20;74.30
11617;DHT22;5864;52.998;9.068;2023-05-24T16:31:12;16.10;74.90
11617;DHT22;5864;52.998;9.068;2023-05-24T16:34:00;16.10;80.40
11617;DHT22;5864;52.998;9.068;2023-05-24T16:36:45;15.80;76.00
11617;DHT22;5864;52.998;9.068;2023-05-24T16:39:32;15.80;74.20
11617;DHT22;5864;52.998;9.068;2023-05-24T16:42:20;15.70;75.60
11617;DHT22;5864;52.998;9.068;2023-05-24T16:45:08;15.70;85.40
11617;DHT22;5864;52.998;9.068;2023-05-24T16:47:54;15.70;71.80
11617;DHT22;5864;52.998;9.068;2023-05-24T16:50:40;15.60;85.00
11617;DHT22;5864;52.998;9.068;2023-05-24T16:53:26;15.50;83.60
11617;DHT22;5864;52.998;9.068;2023-05-24T16:56:11;15.50;81.40
11617;DHT22;5864;52.998;9.068;2023-05-24T16:58:57;15.50;77.00
11617;DHT22;5864;52.998;9.068;2023-05-24T17:01:44;15.40;79.60
11617;DHT22;5864;52.998;9.068;2023-05-24T17:04:32;15.50;70.40
11617;DHT22;5864;52.998;9.068;2023-05-24T17:07:17;15.50;81.70
11617;DHT22;5864;52.998;9.068;2023-05-24T17:10:05;15.50;77.50
11617;DHT22;5864;52.998;9.068;2023-05-24T17:12:50;15.40;86.20
11617;DHT22;5864;52.998;9.068;2023-05-24T17:15:36;15.30;86.50
11617;DHT22;5864;52.998;9.068;2023-05-24T17:18:24;15.10;93.40
11617;DHT22;5864;52.998;9.068;2023-05-24T17:21:13;15.00;95.30
11617;DHT22;5864;52.998;9.068;2023-05-24T17:23:59;14.70;97.60
11617;DHT22;5864;52.998;9.068;2023-05-24T17:26:44;14.80;96.50
11617;DHT22;5864;52.998;9.068;2023-05-24T17:29:31;14.80;98.00
11617;DHT22;5864;52.998;9.068;2023-05-24T17:32:17;14.70;98.80
11617;DHT22;5864;52.998;9.068;2023-05-24T17:35:04;14.90;98.60
11617;DHT22;5864;52.998;9.068;2023-05-24T17:37:49;15.00;94.50
11617;DHT22;5864;52.998;9.068;2023-05-24T17:40:35;15.00;93.80
11617;DHT22;5864;52.998;9.068;2023-05-24T17:43:21;14.90;97.30
11617;DHT22;5864;52.998;9.068;2023-05-24T17:46:07;14.60;99.90
11617;DHT22;5864;52.998;9.068;2023-05-24T17:48:53;14.40;99.90
11617;DHT22;5864;52.998;9.068;2023-05-24T17:51:40;14.50;99.90
11617;DHT22;5864;52.998;9.068;2023-05-24T17:54:26;14.40;99.90
11617;DHT22;5864;52.998;9.068;2023-05-24T17:57:12;14.30;99.90